Terminal Aerodrome Forecast
Issued by NWS

Home | Current Version | Previous Version | Text Only | Print | Product List | Glossary On
Versions: 1 2 3 4 5 6 7 8 9 10 11 12 13 14 15 16 17 18 19 20 21 22 23 24 25 26
108
FTUS45 KREV 061128
TAFTVL
TAF
KTVL 061128Z 0612/0712 VRB03KT P6SM -SHRA FEW010 OVC018
     FM061500 VRB05KT 5SM -RA SCT010 OVC020
     FM062200 04008KT P6SM -SHRA VCTS SCT015CB OVC030
     FM070300 VRB03KT 6SM -SHRA SCT015 BKN025=

USA.gov is the U.S. government's official web portal to all federal, state and local government web resources and services.